Time;durP1;ratioP1;P1;durP2;ratioP2;P2;SDS_P1;SDS_P2;PMS_P1;PMS_P2;Temp;Humidity;BMP_temperature;BMP_pressure;BME280_temperature;BME280_humidity;BME280_pressure;Samples;Min_cycle;Max_cycle;Signal;HPM_P1;HPM_P2
2022/02/08 14:57:30;;;;;;;7.53;3.60;;;;;;;5.02;76.18;100555.47;4986481;28;106447;-75
2022/02/08 14:57:38;;;;;;;7.85;5.45;;;;;;;5.12;76.96;100552.91;4978222;28;106439;-76
2022/02/08 15:08:29;;;;;;;5.65;3.90;;;;;;;5.36;77.38;100565.91;4977321;28;106044;-75
2022/02/08 15:11:02;;;;;;;5.18;3.03;;;;;;;5.40;77.31;100556.75;4976714;28;106063;-78
2022/02/08 15:13:30;;;;;;;7.20;3.38;;;;;;;5.41;77.61;100555.78;4968467;28;106457;-77
2022/02/08 15:16:20;;;;;;;7.65;3.55;;;;;;;5.39;77.56;100544.50;4981276;28;106027;-78
2022/02/08 15:18:45;;;;;;;9.35;4.22;;;;;;;5.38;77.53;100542.81;4965777;28;106025;-74
2022/02/08 15:21:16;;;;;;;8.10;4.82;;;;;;;5.41;77.83;100549.66;4980305;28;105934;-75
2022/02/08 15:23:41;;;;;;;7.72;4.35;;;;;;;5.42;77.86;100546.88;4968943;28;106073;-76
2022/02/08 15:26:07;;;;;;;9.73;4.30;;;;;;;5.48;77.90;100544.69;4979277;28;106735;-76
2022/02/08 15:28:32;;;;;;;5.93;3.85;;;;;;;5.49;77.83;100549.03;4974217;28;105810;-76
2022/02/08 15:30:58;;;;;;;4.47;2.22;;;;;;;5.56;78.70;100561.59;4972707;28;106280;-77
2022/02/08 15:33:25;;;;;;;6.88;3.72;;;;;;;5.60;78.00;100556.88;4980987;28;106206;-76
2022/02/08 15:35:53;;;;;;;7.47;3.20;;;;;;;5.66;78.23;100561.66;4952078;28;105936;-78
2022/02/08 15:38:19;;;;;;;6.70;3.22;;;;;;;5.72;78.41;100560.31;4977912;28;106111;-75
2022/02/08 15:40:45;;;;;;;7.60;3.13;;;;;;;5.73;77.97;100562.81;4974745;28;106525;-76
2022/02/08 15:43:13;;;;;;;5.72;3.28;;;;;;;5.77;78.07;100555.47;4970938;28;106147;-76
2022/02/08 15:45:51;;;;;;;7.72;3.53;;;;;;;5.82;78.05;100571.75;4980200;28;105908;-77
2022/02/08 15:48:21;;;;;;;10.20;4.00;;;;;;;5.84;77.78;100566.38;4971605;28;106013;-76
2022/02/08 16:10:12;;;;;;;7.40;3.13;;;;;;;5.99;77.67;100557.16;4972758;28;106057;-84
2022/02/08 16:13:02;;;;;;;8.45;3.90;;;;;;;6.01;77.26;100563.13;4962625;28;106218;-83
2022/02/08 16:20:37;;;;;;;6.85;3.67;;;;;;;6.02;77.03;100561.34;4960340;28;106076;-78
2022/02/08 16:25:52;;;;;;;6.18;3.53;;;;;;;6.04;77.11;100559.38;4951298;28;106078;-81
2022/02/08 16:52:27;;;;;;;4.97;2.70;;;;;;;6.14;76.68;100527.69;4961401;28;106261;-76
2022/02/08 16:57:31;;;;;;;5.82;3.63;;;;;;;6.15;76.50;100530.22;4955152;28;105874;-76
2022/02/08 16:59:58;;;;;;;11.18;5.50;;;;;;;6.17;76.37;100535.38;4940264;28;105944;-76
2022/02/08 17:02:26;;;;;;;5.85;3.70;;;;;;;6.19;76.47;100552.78;4961692;28;105877;-77
2022/02/08 17:04:52;;;;;;;7.50;3.92;;;;;;;6.20;76.24;100558.91;4962439;28;106031;-78
2022/02/08 17:07:17;;;;;;;7.38;4.22;;;;;;;6.21;76.50;100544.72;4969158;28;106299;-75
2022/02/08 17:09:46;;;;;;;6.40;3.92;;;;;;;6.23;76.59;100543.63;4952542;28;106845;-78
2022/02/08 17:15:39;;;;;;;4.95;3.38;;;;;;;6.28;76.40;100548.50;4925561;28;106503;-78
2022/02/08 17:45:36;;;;;;;4.88;2.83;;;;;;;6.50;75.82;100612.78;4928891;28;106394;-76
2022/02/08 17:47:57;;;;;;;11.98;3.65;;;;;;;6.51;75.86;100607.38;4929028;28;106178;-75
2022/02/08 17:50:23;;;;;;;12.52;5.72;;;;;;;6.51;75.39;100603.88;4929819;28;106180;-77
2022/02/08 17:52:48;;;;;;;9.02;4.20;;;;;;;6.53;75.77;100615.16;4929107;28;106327;-76
2022/02/08 17:55:16;;;;;;;13.13;4.68;;;;;;;6.54;75.67;100607.09;4929166;28;106252;-76
2022/02/08 17:57:42;;;;;;;11.05;4.80;;;;;;;6.54;76.03;100606.25;4930927;28;106440;-77
2022/02/08 18:00:09;;;;;;;10.20;4.28;;;;;;;6.54;75.78;100616.84;4928863;28;106242;-76
2022/02/08 18:02:35;;;;;;;5.93;3.03;;;;;;;6.57;75.74;100609.47;4927881;28;108696;-76
2022/02/08 18:05:02;;;;;;;7.30;3.88;;;;;;;6.58;75.38;100584.69;4929647;28;106106;-79
2022/02/08 18:07:28;;;;;;;7.32;3.45;;;;;;;6.60;75.43;100595.97;4929067;28;106073;-76
2022/02/08 18:09:54;;;;;;;5.75;3.22;;;;;;;6.61;75.45;100599.44;4928898;28;106209;-78
2022/02/08 18:12:22;;;;;;;6.40;3.88;;;;;;;6.62;75.41;100606.44;4933561;28;107039;-75
2022/02/08 18:14:53;;;;;;;9.23;3.60;;;;;;;6.64;75.42;100606.28;4948054;28;106274;-77
2022/02/08 18:17:25;;;;;;;7.63;3.67;;;;;;;6.65;75.92;100614.09;4948491;28;106027;-76
2022/02/08 18:19:59;;;;;;;8.30;4.57;;;;;;;6.65;75.17;100616.75;4947867;28;105996;-77
2022/02/08 18:22:36;;;;;;;5.28;3.35;;;;;;;6.70;75.40;100619.00;4948195;28;106032;-79
2022/02/08 18:26:05;;;;;;;6.40;3.10;;;;;;;6.72;75.65;100625.81;4931091;28;106058;-76
2022/02/08 19:19:02;;;;;;;8.05;4.13;;;;;;;6.88;74.79;100673.00;4935432;28;106039;-74
2022/02/08 19:23:54;;;;;;;10.43;5.05;;;;;;;6.88;74.99;100686.22;4939580;28;106186;-77
2022/02/08 19:26:23;;;;;;;4.60;3.00;;;;;;;6.87;75.26;100686.38;4940163;28;106675;-76
2022/02/08 19:28:50;;;;;;;6.10;3.75;;;;;;;6.84;75.19;100676.88;4939600;28;106142;-78
2022/02/08 19:31:20;;;;;;;9.05;3.13;;;;;;;6.85;74.67;100690.94;4938281;28;105979;-81
2022/02/08 19:33:49;;;;;;;6.28;3.25;;;;;;;6.83;75.29;100699.03;4941906;28;106117;-76
2022/02/08 19:36:15;;;;;;;6.13;3.63;;;;;;;6.83;74.80;100701.69;4933178;28;106651;-79
2022/02/08 19:38:43;;;;;;;5.82;3.45;;;;;;;6.82;75.09;100696.50;4932199;28;105923;-77
2022/02/08 19:41:08;;;;;;;7.18;3.67;;;;;;;6.83;74.70;100690.25;4932570;28;105891;-75
2022/02/08 19:43:34;;;;;;;8.95;3.85;;;;;;;6.82;74.89;100713.25;4932287;28;105749;-77
2022/02/08 19:46:00;;;;;;;7.88;4.05;;;;;;;6.82;75.14;100712.41;4931037;28;106733;-77
2022/02/08 19:48:25;;;;;;;11.60;4.55;;;;;;;6.81;75.44;100708.94;4931990;28;106108;-76
2022/02/08 19:50:50;;;;;;;7.05;4.47;;;;;;;6.78;75.03;100701.25;4932384;28;105817;-78
2022/02/08 19:53:16;;;;;;;7.72;5.00;;;;;;;6.73;75.46;100683.09;4932378;28;106235;-80
2022/02/08 19:55:56;;;;;;;7.20;4.40;;;;;;;6.67;75.80;100715.44;4932299;28;106314;-75
2022/02/08 19:58:28;;;;;;;6.32;4.80;;;;;;;6.60;75.39;100727.50;4932291;28;106364;-79
2022/02/08 20:01:10;;;;;;;9.27;4.47;;;;;;;6.58;75.74;100727.63;4933207;28;105986;-79
2022/02/08 20:03:41;;;;;;;6.00;3.88;;;;;;;6.55;76.09;100732.34;4932098;28;106333;-76
2022/02/08 20:06:06;;;;;;;;;;;;;;;6.53;76.00;100739.56;4932592;28;106807;-76
2022/02/08 20:08:32;;;;;;;7.85;4.25;;;;;;;6.52;76.53;100737.88;4929969;28;107585;-78
2022/02/08 20:10:57;;;;;;;6.65;3.90;;;;;;;6.48;75.96;100755.00;4932516;28;105746;-78
2022/02/08 20:13:25;;;;;;;6.68;4.00;;;;;;;6.47;76.49;100740.13;4931640;28;106142;-76
2022/02/08 20:15:52;;;;;;;4.82;3.30;;;;;;;6.47;76.53;100750.69;4931439;28;108574;-75
2022/02/08 20:18:18;;;;;;;6.85;3.55;;;;;;;6.48;76.85;100731.19;4931620;28;106273;-74
2022/02/08 20:20:45;;;;;;;5.45;3.95;;;;;;;6.46;76.94;100759.59;4932540;28;105987;-77
2022/02/08 20:23:11;;;;;;;5.10;3.38;;;;;;;6.45;77.15;100748.16;4932108;28;106213;-78
2022/02/08 20:25:44;;;;;;;7.05;4.25;;;;;;;6.43;77.33;100758.88;4932006;28;106723;-77
2022/02/08 20:28:15;;;;;;;5.35;3.38;;;;;;;6.44;77.19;100746.50;4931654;28;106174;-78
2022/02/08 20:30:40;;;;;;;;;;;;;;;6.44;76.97;100765.84;4933009;28;106089;-75
2022/02/08 20:33:06;;;;;;;5.72;3.53;;;;;;;6.43;77.03;100766.81;4931218;28;106883;-77
2022/02/08 20:35:32;;;;;;;8.15;3.90;;;;;;;6.42;77.57;100766.94;4930979;28;105946;-77
2022/02/08 20:37:58;;;;;;;7.18;3.50;;;;;;;6.44;77.54;100767.69;4931015;28;106021;-74
2022/02/08 20:40:23;;;;;;;6.72;3.53;;;;;;;6.42;77.76;100773.09;4930523;28;105888;-77
2022/02/08 20:42:54;;;;;;;5.53;4.13;;;;;;;6.42;77.61;100759.88;4928394;28;106699;-75
2022/02/08 20:45:19;;;;;;;5.07;3.60;;;;;;;6.43;77.89;100763.34;4928572;28;108468;-73
2022/02/08 20:47:45;;;;;;;6.05;3.22;;;;;;;6.44;77.95;100763.22;4948104;28;106937;-75
2022/02/08 20:50:13;;;;;;;7.00;3.97;;;;;;;6.43;78.07;100772.13;4949344;28;106391;-75
2022/02/08 20:52:44;;;;;;;6.80;3.58;;;;;;;6.44;77.68;100783.56;4948356;28;106347;-74
2022/02/08 20:55:15;;;;;;;6.40;3.50;;;;;;;6.45;77.86;100777.28;4949157;28;106783;-75
2022/02/08 20:57:43;;;;;;;5.07;3.50;;;;;;;6.48;77.87;100773.53;4950021;28;106026;-74
2022/02/08 21:00:11;;;;;;;6.68;3.58;;;;;;;6.47;77.91;100772.69;4950858;28;106033;-74
2022/02/08 21:02:42;;;;;;;6.05;3.20;;;;;;;6.49;77.93;100769.91;4950372;28;106219;-74
2022/02/08 21:05:30;;;;;;;7.28;4.82;;;;;;;6.48;78.37;100778.81;4950593;28;105990;-74
2022/02/08 21:07:54;;;;;;;7.47;3.97;;;;;;;6.49;78.60;100778.69;4949661;28;106036;-74
2022/02/08 21:10:22;;;;;;;7.57;3.75;;;;;;;6.49;78.24;100788.44;4951340;28;106158;-74
2022/02/08 21:15:26;;;;;;;7.22;3.97;;;;;;;6.49;78.45;100773.41;4946988;28;105955;-73
2022/02/08 21:17:52;;;;;;;5.18;4.10;;;;;;;6.48;78.19;100784.97;4949866;28;105914;-74
2022/02/08 21:20:17;;;;;;;7.28;3.65;;;;;;;6.48;78.72;100800.00;4950897;28;106211;-74
2022/02/08 21:22:42;;;;;;;6.03;3.83;;;;;;;6.46;78.72;100784.25;4949864;28;106184;-74
2022/02/08 21:25:08;;;;;;;6.22;4.00;;;;;;;6.46;78.84;100786.91;4949759;28;118828;-74
2022/02/08 21:27:36;;;;;;;6.78;4.10;;;;;;;6.44;78.54;100794.97;4940706;28;106041;-75
2022/02/08 21:30:23;;;;;;;5.40;3.60;;;;;;;6.46;79.04;100780.78;4939854;28;106088;-74
2022/02/08 21:49:08;;;;;;;5.35;3.67;;;;;;;6.52;79.38;100788.19;4930302;28;105860;-77
2022/02/08 21:51:56;;;;;;;6.38;4.05;;;;;;;6.53;79.12;100789.88;4931389;28;106031;-74
2022/02/08 21:54:31;;;;;;;5.82;3.78;;;;;;;6.54;79.06;100802.16;4930083;28;106266;-74
2022/02/08 21:56:57;;;;;;;7.45;4.00;;;;;;;6.56;79.50;100792.25;4930643;28;105908;-73
2022/02/08 21:59:24;;;;;;;8.77;4.40;;;;;;;6.58;79.32;100795.63;4929947;28;106063;-76
2022/02/08 22:01:50;;;;;;;6.10;4.15;;;;;;;6.59;78.93;100798.13;4931204;28;105902;-73
2022/02/08 22:04:15;;;;;;;7.18;4.10;;;;;;;6.62;79.22;100806.81;4929927;28;105929;-74
2022/02/08 22:06:44;;;;;;;4.82;3.20;;;;;;;6.64;79.13;100805.69;4944263;28;112054;-73
2022/02/08 22:09:13;;;;;;;7.43;4.00;;;;;;;6.65;79.63;100801.25;4949325;28;106474;-78
2022/02/08 22:18:01;;;;;;;6.30;3.67;;;;;;;6.68;79.91;100812.41;4949443;28;106034;-75
2022/02/08 22:22:31;;;;;;;6.32;4.25;;;;;;;6.69;79.62;100814.09;4949642;28;105942;-75
